Flanders, New York
Current Conditions -  °F | °C
As of 10:53 PM on Tuesday 21 Oct 2014 (Local Time) from KFOK Reporting Station
Overcast Overcast  
Wind Chill: 59°   Ceiling: 5500
Heat Index: 59°   Visibility: 10mi
Dew Point: 55°   Wind: 6mph
Humidity: 87%   Direction: 50°NE
Pressure: 29.92"   Gusts: NA
Location:  40.953°N, 72.642°W
Report Text: KFOK 220253Z AUTO 05005KT 10SM BKN055 OVC075 15/13 A2992 RMK AO2 SLP130 60000 T01500128 53009 TSNO
Loading
Personal Weather Stations






























Interactive Weather Map
Tropical Storm Tracking
New forecast layout! Learn more

10-Day Weather Forecast

Advertisements
Track Severe Weather on mobile